Hordafor III — LLVC — position and weather

sailwx.info

Track history (hours):
 
Tides and Currents Weather Stations Pressure Air Temp Water Temp Dewpoint Dewpoint Depression Visibility Wind Speed Wind Dir Waves Ship Positions

Hordafor III

Last reported at 2017-Nov-20 00:30 UTC. Time now 2017-Nov-20 19:03 UTC.
Position N 60°00' E 005°07'.

Length 50 m; draft 6 m.

Type: Cargo ship. MMSI: 258044000.

Date/timePositionNaut miles runAvg speedWind from/ knotsBaromVisibWave heightAir tempDewpointWater temp
2017-Nov-20 00:30N 60°00' E 005°07'0 0.0
2017-Nov-20 00:00N 60°00' E 005°07'1 1.1
2017-Nov-19 23:30N 59°60' E 005°06'611.3
2017-Nov-19 23:00N 59°55' E 005°11'611.5
2017-Nov-19 22:29N 59°50' E 005°17'611.5
2017-Nov-19 22:00N 59°45' E 005°22'5 9.4
2017-Nov-19 21:30N 59°40' E 005°21'510.5
2017-Nov-19 21:00N 59°36' E 005°17'510.2
2017-Nov-19 20:30N 59°31' E 005°13'611.2
2017-Nov-19 20:00N 59°25' E 005°14'5 9.6
2017-Nov-19 19:30N 59°21' E 005°19'611.0
2017-Nov-19 19:00N 59°15' E 005°20'4 9.0
2017-Nov-19 18:30N 59°13' E 005°28'5 9.6
2017-Nov-19 18:00N 59°14' E 005°37'611.7
2017-Nov-19 17:30N 59°17' E 005°46'510.4
2017-Nov-19 17:00N 59°18' E 005°56'2 3.2
2017-Nov-19 16:30N 59°18' E 005°59'0 0.0
2017-Nov-19 16:00N 59°18' E 005°59'0 0.0
2017-Nov-19 15:30N 59°18' E 005°59'0 0.0
2017-Nov-19 15:00N 59°18' E 005°59'0 0.0
2017-Nov-19 14:30N 59°18' E 005°59'0 0.0
2017-Nov-19 13:59N 59°18' E 005°59'1 1.5
2017-Nov-19 13:30N 59°18' E 005°58'0 0.3
2017-Nov-19 13:00N 59°18' E 005°58'1 1.5
2017-Nov-19 12:30N 59°18' E 005°59'0 0.0
2017-Nov-19 12:00N 59°18' E 005°59'0 0.0
2017-Nov-19 11:30N 59°18' E 005°59'0 0.0
2017-Nov-19 11:00N 59°18' E 005°59'2 3.6
2017-Nov-19 10:30N 59°18' E 005°56'510.2
2017-Nov-19 10:00N 59°17' E 005°46'510.6
2017-Nov-19 09:30N 59°13' E 005°40'510.0
2017-Nov-19 09:00N 59°09' E 005°34'5 9.9
2017-Nov-19 08:30N 59°04' E 005°33'510.0
2017-Nov-19 08:00N 58°59' E 005°33'5 9.9
2017-Nov-19 07:30N 58°54' E 005°32'5 9.6
2017-Nov-19 07:00N 58°50' E 005°28'5 9.3
2017-Nov-19 06:30N 58°45' E 005°26'4 8.0
2017-Nov-19 06:00N 58°41' E 005°28'4 7.6
2017-Nov-19 05:30N 58°38' E 005°30'3 6.6
2017-Nov-19 05:00N 58°34' E 005°32'3 6.2
2017-Nov-19 04:30N 58°31' E 005°33'3 6.2
2017-Nov-19 04:00N 58°28' E 005°34'3 6.0
2017-Nov-19 03:30N 58°26' E 005°36'3 5.7
2017-Nov-19 03:00N 58°23' E 005°38'3 5.6
2017-Nov-19 02:30N 58°20' E 005°39'3 5.4
2017-Nov-19 01:59N 58°18' E 005°42'3 5.6
2017-Nov-19 01:30N 58°15' E 005°44'3 6.3
2017-Nov-19 01:00N 58°13' E 005°47'4 8.0
2017-Nov-19 00:30N 58°09' E 005°51'4 8.0
2017-Nov-19 00:00N 58°06' E 005°56'4 8.2
2017-Nov-18 23:30N 58°03' E 005°60'173 7.8
2017-Nov-18 01:20N 55°25' E 008°10'3 8.6
2017-Nov-18 00:58N 55°26' E 008°15'4 9.4
2017-Nov-18 00:30N 55°29' E 008°21'2 4.2
2017-Nov-18 00:00N 55°29' E 008°25'0 0.0
2017-Nov-17 23:30N 55°29' E 008°25'0 0.0
2017-Nov-17 23:00N 55°29' E 008°25'0 0.0
2017-Nov-17 22:30N 55°29' E 008°25'0 0.0
2017-Nov-17 22:00N 55°29' E 008°25'0 0.0
2017-Nov-17 21:30N 55°29' E 008°25'0 0.0
2017-Nov-17 21:00N 55°29' E 008°25'0 0.0
2017-Nov-17 20:29N 55°29' E 008°25'0 0.0
2017-Nov-17 20:00N 55°29' E 008°25'0 0.0
2017-Nov-17 19:30N 55°29' E 008°25'0 0.0
2017-Nov-17 19:00N 55°29' E 008°25'0 0.0
2017-Nov-17 18:30N 55°29' E 008°25'0 0.0
2017-Nov-17 18:00N 55°29' E 008°25'0 0.0
2017-Nov-17 17:30N 55°29' E 008°25'0 0.0
2017-Nov-17 17:00N 55°29' E 008°25'0 0.0
2017-Nov-17 16:30N 55°29' E 008°25'0 0.0
2017-Nov-17 16:00N 55°29' E 008°25'0 0.0
2017-Nov-17 15:30N 55°29' E 008°25'0 0.0
2017-Nov-17 15:00N 55°29' E 008°25'0 0.0
2017-Nov-17 14:30N 55°29' E 008°25'0 0.0
2017-Nov-17 14:00N 55°29' E 008°25'0 0.0
2017-Nov-17 13:30N 55°29' E 008°25'0 0.0
2017-Nov-17 13:00N 55°29' E 008°25'0 0.0
2017-Nov-17 12:30N 55°29' E 008°25'0 0.0
2017-Nov-17 12:00N 55°29' E 008°25'0 0.0
2017-Nov-17 11:30N 55°29' E 008°25'0 0.1
2017-Nov-17 10:59N 55°29' E 008°25'0 0.0
2017-Nov-17 10:30N 55°29' E 008°25'3 6.2
2017-Nov-17 10:00N 55°28' E 008°20'611.2
2017-Nov-17 09:30N 55°25' E 008°11'610.9
2017-Nov-17 08:58N 55°25' E 008°01'611.1
2017-Nov-17 08:27N 55°25' E 007°51'511.0
2017-Nov-17 07:58N 55°27' E 007°42'17010.3
2017-Nov-16 15:28N 58°05' E 005°52'510.4
2017-Nov-16 15:00N 58°10' E 005°49'510.4
2017-Nov-16 14:30N 58°15' E 005°46'5 9.9
2017-Nov-16 14:00N 58°19' E 005°42'5 9.3
2017-Nov-16 13:30N 58°24' E 005°39'4 8.9
2017-Nov-16 13:00N 58°28' E 005°36'4 8.2
2017-Nov-16 12:30N 58°31' E 005°33'4 8.0
2017-Nov-16 12:00N 58°35' E 005°31'4 8.0
2017-Nov-16 11:30N 58°39' E 005°28'4 8.0
2017-Nov-16 11:00N 58°43' E 005°26'4 8.2
2017-Nov-16 10:30N 58°47' E 005°24'4 7.6
2017-Nov-16 10:00N 58°50' E 005°27'4 8.3
2017-Nov-16 09:30N 58°54' E 005°32'5 9.4
2017-Nov-16 09:00N 58°58' E 005°33'5 9.3
2017-Nov-16 08:30N 59°03' E 005°32'4 8.8
2017-Nov-16 08:00N 59°07' E 005°28'5 9.4
2017-Nov-16 07:30N 59°10' E 005°20'5 9.2
2017-Nov-16 07:00N 59°15' E 005°20'5 9.8
2017-Nov-16 06:30N 59°19' E 005°20'5 9.0
2017-Nov-16 06:00N 59°24' E 005°17'4 8.3
2017-Nov-16 05:30N 59°27' E 005°13'5 9.4
2017-Nov-16 04:59N 59°32' E 005°13'510.4
2017-Nov-16 04:30N 59°37' E 005°17'510.7
2017-Nov-16 04:00N 59°41' E 005°23'5 9.0
2017-Nov-16 03:29N 59°46' E 005°21'5 9.8
2017-Nov-16 03:00N 59°50' E 005°17'5 9.6
2017-Nov-16 02:30N 59°54' E 005°12'5 9.5
2017-Nov-16 02:00N 59°58' E 005°07'2 4.0
2017-Nov-16 01:30N 60°00' E 005°07'0 0.0
2017-Nov-16 01:00N 60°00' E 005°07'0 0.0
2017-Nov-16 00:30N 60°00' E 005°07'0 0.0
2017-Nov-16 00:00N 60°00' E 005°07'0 0.0
2017-Nov-15 23:30N 60°00' E 005°07'0 0.0
2017-Nov-15 23:00N 60°00' E 005°07'0 0.0
2017-Nov-15 22:30N 60°00' E 005°07'0 0.0
2017-Nov-15 22:00N 60°00' E 005°07'0 0.0
2017-Nov-15 21:30N 60°00' E 005°07'0 0.0
2017-Nov-15 20:59N 60°00' E 005°07'0 0.0
2017-Nov-15 20:30N 60°00' E 005°07'0 0.0
2017-Nov-15 20:00N 60°00' E 005°07'0 0.0
2017-Nov-15 19:29N 60°00' E 005°07'0 0.0
2017-Nov-15 19:00N 60°00' E 005°07'0 0.0
2017-Nov-15 18:30N 60°00' E 005°07'0 0.0
2017-Nov-15 18:00N 60°00' E 005°07'0 0.0
2017-Nov-15 17:30N 60°00' E 005°07'0 0.1
2017-Nov-15 17:00N 60°00' E 005°07'0 0.0
2017-Nov-15 16:30N 60°00' E 005°07'4 7.2
2017-Nov-15 16:00N 60°03' E 005°10'510.9
2017-Nov-15 15:30N 60°09' E 005°11'511.0
2017-Nov-15 15:00N 60°14' E 005°10'510.7
2017-Nov-15 14:30N 60°19' E 005°09'5 9.8
2017-Nov-15 14:00N 60°24' E 005°13'3 5.9
2017-Nov-15 13:30N 60°24' E 005°19'0 0.0
2017-Nov-15 13:00N 60°24' E 005°19'0 0.0
2017-Nov-15 12:30N 60°24' E 005°19'0 0.0
2017-Nov-15 12:00N 60°24' E 005°19'0 0.0
2017-Nov-15 11:30N 60°24' E 005°19'0 0.0
2017-Nov-15 11:00N 60°24' E 005°19'0 0.0
2017-Nov-15 10:30N 60°24' E 005°19'0 0.0
2017-Nov-15 10:00N 60°24' E 005°19'0 0.0
2017-Nov-15 09:30N 60°24' E 005°19'0 0.0
2017-Nov-15 09:00N 60°24' E 005°19'0 0.0
2017-Nov-15 08:30N 60°24' E 005°19'0 0.0
2017-Nov-15 07:59N 60°24' E 005°19'0 0.0
2017-Nov-15 07:30N 60°24' E 005°19'0 0.0
2017-Nov-15 07:00N 60°24' E 005°19'0 0.0
2017-Nov-15 06:30N 60°24' E 005°19'1 1.6
2017-Nov-15 05:59N 60°24' E 005°18'511.1
2017-Nov-15 05:30N 60°30' E 005°15'4 8.1
2017-Nov-15 05:00N 60°31' E 005°23'1 2.9
2017-Nov-15 04:30N 60°30' E 005°26'0 0.0
2017-Nov-15 04:00N 60°30' E 005°26'0 0.0
2017-Nov-15 03:30N 60°30' E 005°26'0 0.0
2017-Nov-15 03:00N 60°30' E 005°26'0 0.0
2017-Nov-15 02:30N 60°30' E 005°26'0 0.0
2017-Nov-15 02:00N 60°30' E 005°26'4 8.9
2017-Nov-15 01:30N 60°32' E 005°17'610.7
2017-Nov-15 01:00N 60°26' E 005°16'5 9.6
2017-Nov-15 00:30N 60°22' E 005°10'5 9.7
2017-Nov-15 00:00N 60°18' E 005°12'4 8.0
2017-Nov-14 23:30N 60°14' E 005°10'611.2
2017-Nov-14 23:00N 60°09' E 005°17'510.9
2017-Nov-14 22:30N 60°07' E 005°27'611.2
2017-Nov-14 22:00N 60°07' E 005°38'3 5.2
2017-Nov-14 21:28N 60°07' E 005°44'2 3.8
2017-Nov-14 21:00N 60°07' E 005°40'611.1
2017-Nov-14 20:30N 60°07' E 005°29'611.1
2017-Nov-14 19:59N 60°07' E 005°18'4 7.3
2017-Nov-14 19:30N 60°06' E 005°11'1 2.6
2017-Nov-14 19:00N 60°06' E 005°13'0 0.0
2017-Nov-14 18:30N 60°06' E 005°13'0 0.0
2017-Nov-14 18:00N 60°06' E 005°13'1 1.8
2017-Nov-14 17:30N 60°05' E 005°12'510.7
2017-Nov-14 16:59N 60°00' E 005°07'0 0.1
2017-Nov-14 16:29N 60°00' E 005°07'0 0.0
2017-Nov-14 16:00N 60°00' E 005°07'0 0.0
2017-Nov-14 15:30N 60°00' E 005°07'0 0.0
2017-Nov-14 15:00N 60°00' E 005°07'4 7.2
2017-Nov-14 14:30N 59°57' E 005°06'3 5.8
2017-Nov-14 13:59N 59°54' E 005°06'0 0.0
2017-Nov-14 13:30N 59°54' E 005°06'0 0.0
2017-Nov-14 13:00N 59°54' E 005°06'0 0.0
2017-Nov-14 12:30N 59°54' E 005°06'0 0.0
2017-Nov-14 12:00N 59°54' E 005°06'0 0.0
2017-Nov-14 11:30N 59°54' E 005°06'0 0.6
2017-Nov-14 11:00N 59°53' E 005°06'5 9.7
2017-Nov-14 10:30N 59°58' E 005°06'611.3
2017-Nov-14 10:00N 60°04' E 005°10'611.4
2017-Nov-14 09:30N 60°09' E 005°11'611.3
2017-Nov-14 08:59N 60°15' E 005°09'510.7
2017-Nov-14 08:30N 60°20' E 005°10'510.2
2017-Nov-14 08:00N 60°25' E 005°05'510.2
2017-Nov-14 07:30N 60°29' E 004°59'510.1
2017-Nov-14 07:00N 60°33' E 004°55'3 5.3
2017-Nov-14 06:30N 60°36' E 004°51'0 1.0
2017-Nov-14 06:00N 60°36' E 004°52'5 9.2
2017-Nov-14 05:30N 60°40' E 004°50'5 9.6
2017-Nov-14 05:00N 60°45' E 004°47'5 9.3
2017-Nov-14 04:30N 60°49' E 004°45'5 9.9
2017-Nov-14 04:00N 60°54' E 004°46'5 9.7
2017-Nov-14 03:30N 60°59' E 004°47'510.8
2017-Nov-14 03:00N 61°02' E 004°55'510.6
2017-Nov-14 02:30N 61°07' E 005°02'5 9.9
2017-Nov-14 02:00N 61°12' E 005°01'4 7.1
2017-Nov-14 01:30N 61°12' E 005°08'1 1.7
2017-Nov-14 01:00N 61°12' E 005°10'0 0.9
2017-Nov-14 00:30N 61°12' E 005°11'3 5.0
2017-Nov-14 00:00N 61°12' E 005°16'0 0.0
2017-Nov-13 23:30N 61°12' E 005°16'5 9.4
2017-Nov-13 23:00N 61°13' E 005°06'5 9.8
2017-Nov-13 22:30N 61°14' E 004°56'4 8.6
2017-Nov-13 22:00N 61°18' E 004°59'78 3.9
2017-Nov-13 02:00N 62°28' E 006°09'0 0.0
2017-Nov-13 01:30N 62°28' E 006°09'0 0.0
2017-Nov-13 01:00N 62°28' E 006°09'0 0.0
2017-Nov-13 00:30N 62°28' E 006°09'0 0.0
2017-Nov-13 00:01N 62°28' E 006°09'0 0.0
2017-Nov-12 23:30N 62°28' E 006°09'0 0.0
2017-Nov-12 23:00N 62°28' E 006°09'0 0.0
2017-Nov-12 22:30N 62°28' E 006°09'0 0.0
2017-Nov-12 22:00N 62°28' E 006°09'0 0.0
2017-Nov-12 21:30N 62°28' E 006°09'0 0.0
2017-Nov-12 21:00N 62°28' E 006°09'0 0.0
2017-Nov-12 20:31N 62°28' E 006°09'0 0.0
2017-Nov-12 20:00N 62°28' E 006°09'0 0.0
2017-Nov-12 19:31N 62°28' E 006°09'0 0.0
2017-Nov-12 19:01N 62°28' E 006°09'0 0.0
2017-Nov-12 18:31N 62°28' E 006°09'0 0.0
2017-Nov-12 18:01N 62°28' E 006°09'0 0.0
2017-Nov-12 17:30N 62°28' E 006°09'0 0.0
2017-Nov-12 17:01N 62°28' E 006°09'1 1.2
2017-Nov-12 16:31N 62°28' E 006°10'2 4.2
2017-Nov-12 16:00N 62°29' E 006°06'510.8
2017-Nov-12 15:30N 62°34' E 006°11'5 9.1
2017-Nov-12 15:00N 62°37' E 006°18'510.6
2017-Nov-12 14:30N 62°38' E 006°30'611.0
2017-Nov-12 13:59N 62°39' E 006°41'611.1
2017-Nov-12 13:29N 62°41' E 006°53'5 9.9
2017-Nov-12 13:00N 62°46' E 006°57'611.5
2017-Nov-12 12:30N 62°51' E 006°58'5 9.2
2017-Nov-12 12:00N 62°55' E 006°51'2 4.9
2017-Nov-12 11:30N 62°54' E 006°46'4 8.6
2017-Nov-12 11:00N 62°51' E 006°40'510.1
2017-Nov-12 10:30N 62°46' E 006°34'510.6
2017-Nov-12 10:00N 62°42' E 006°28'510.6
2017-Nov-12 09:30N 62°38' E 006°21'5 9.8
2017-Nov-12 09:00N 62°34' E 006°13'5 9.9
2017-Nov-12 08:30N 62°30' E 006°09'3 5.5
2017-Nov-12 08:00N 62°27' E 006°08'1 2.4
2017-Nov-12 07:30N 62°28' E 006°09'0 0.0
2017-Nov-12 07:00N 62°28' E 006°09'0 0.0
2017-Nov-12 06:30N 62°28' E 006°09'0 0.0
2017-Nov-12 06:00N 62°28' E 006°09'0 0.0
2017-Nov-12 05:30N 62°28' E 006°09'0 0.0
2017-Nov-12 05:01N 62°28' E 006°09'0 0.0
2017-Nov-12 04:31N 62°28' E 006°09'0 0.0
2017-Nov-12 04:01N 62°28' E 006°09'0 0.0
2017-Nov-12 03:30N 62°28' E 006°09'0 0.0
2017-Nov-12 03:00N 62°28' E 006°09'0 0.0
2017-Nov-12 02:30N 62°28' E 006°09'0 0.0
2017-Nov-12 02:00N 62°28' E 006°09'0 0.0
2017-Nov-12 01:30N 62°28' E 006°09'0 0.0
2017-Nov-12 01:01N 62°28' E 006°09'0 0.0
2017-Nov-12 00:31N 62°28' E 006°09'0 0.0
2017-Nov-12 00:00N 62°28' E 006°09'0 0.1
2017-Nov-11 23:30N 62°28' E 006°09'2 4.5
2017-Nov-11 23:00N 62°28' E 006°05'4 8.4
2017-Nov-11 22:30N 62°24' E 006°05'5 9.4
2017-Nov-11 22:00N 62°19' E 006°04'611.4
2017-Nov-11 21:30N 62°15' E 005°56'510.4
2017-Nov-11 21:00N 62°10' E 005°58'1 1.9
2017-Nov-11 20:29N 62°09' E 005°57'3 6.7
2017-Nov-11 20:00N 62°12' E 005°55'510.1
2017-Nov-11 19:29N 62°12' E 005°44'510.1
2017-Nov-11 19:00N 62°11' E 005°33'5 9.3
2017-Nov-11 18:30N 62°11' E 005°23'5 9.2
2017-Nov-11 18:00N 62°13' E 005°15'5 9.0
2017-Nov-11 17:30N 62°12' E 005°05'5 9.2
2017-Nov-11 17:00N 62°07' E 005°05'5 9.5
2017-Nov-11 16:30N 62°03' E 005°08'510.2
2017-Nov-11 16:00N 61°58' E 005°09'4 8.7
2017-Nov-11 15:30N 61°53' E 005°10'4 8.5
2017-Nov-11 15:00N 61°50' E 005°16'5 9.9
2017-Nov-11 14:30N 61°48' E 005°07'5 9.9
2017-Nov-11 14:00N 61°44' E 004°59'5 9.7
2017-Nov-11 13:30N 61°40' E 004°58'5 9.7
2017-Nov-11 13:00N 61°35' E 004°57'5 9.3
2017-Nov-11 12:30N 61°30' E 004°60'5 9.9
2017-Nov-11 12:00N 61°25' E 004°58'510.0
2017-Nov-11 11:30N 61°21' E 005°03'4 8.0
2017-Nov-11 11:00N 61°17' E 004°58'4 8.0
2017-Nov-11 10:30N 61°13' E 004°57'5 9.2
2017-Nov-11 10:00N 61°09' E 005°01'510.1
2017-Nov-11 09:30N 61°04' E 005°01'510.2
2017-Nov-11 09:00N 60°59' E 005°02'4 7.0
2017-Nov-11 08:30N 60°57' E 004°56'5 9.8
2017-Nov-11 08:00N 60°53' E 004°58'4 8.6
2017-Nov-11 07:30N 60°51' E 004°49'3 7.0
2017-Nov-11 07:00N 60°48' E 004°45'5 9.1
2017-Nov-11 06:30N 60°44' E 004°49'5 9.5
2017-Nov-11 05:59N 60°39' E 004°52'5 9.6
2017-Nov-11 05:30N 60°35' E 004°55'5 9.7
2017-Nov-11 05:00N 60°30' E 004°59'510.2
2017-Nov-11 04:30N 60°26' E 005°03'5 9.7
2017-Nov-11 04:00N 60°22' E 005°10'510.4
2017-Nov-11 03:30N 60°17' E 005°09'510.9
2017-Nov-11 03:00N 60°12' E 005°11'510.5
2017-Nov-11 02:30N 60°06' E 005°11'510.1
2017-Nov-11 02:00N 60°01' E 005°09'1 2.9
2017-Nov-11 01:29N 60°00' E 005°07'0 0.0
2017-Nov-11 01:00N 60°00' E 005°07'0 0.0
2017-Nov-11 00:30N 60°00' E 005°07'0 0.0
2017-Nov-10 23:59N 60°00' E 005°07'0 0.0
2017-Nov-10 23:30N 60°00' E 005°07'0 0.0
2017-Nov-10 23:00N 60°00' E 005°07'0 0.0
2017-Nov-10 22:30N 60°00' E 005°07'0 0.0
2017-Nov-10 22:00N 60°00' E 005°07'2 4.5
2017-Nov-10 21:30N 60°02' E 005°07'1 2.9
2017-Nov-10 21:00N 60°03' E 005°09'510.7
2017-Nov-10 20:30N 60°09' E 005°11'1 2.7
2017-Nov-10 19:59N 60°09' E 005°14'0 0.0
2017-Nov-10 19:30N 60°09' E 005°14'0 0.9
2017-Nov-10 19:00N 60°10' E 005°13'0 0.7
2017-Nov-10 18:30N 60°10' E 005°13'0 0.8
2017-Nov-10 17:59N 60°10' E 005°13'3 6.6
2017-Nov-10 17:30N 60°13' E 005°13'0 0.0
2017-Nov-10 17:00N 60°13' E 005°13'2 4.1
2017-Nov-10 16:29N 60°15' E 005°09'510.9
2017-Nov-10 16:00N 60°20' E 005°09'5 9.3
2017-Nov-10 15:30N 60°24' E 005°06'510.3
2017-Nov-10 15:00N 60°28' E 004°60'510.8
2017-Nov-10 14:30N 60°33' E 004°55'3 5.8
2017-Nov-10 14:00N 60°36' E 004°51'3 5.8
2017-Nov-10 13:29N 60°38' E 004°51'510.8
2017-Nov-10 13:00N 60°43' E 004°48'510.7
2017-Nov-10 12:30N 60°49' E 004°44'4 9.0
2017-Nov-10 12:00N 60°51' E 004°52'4 8.9
2017-Nov-10 11:30N 60°54' E 004°58'4 8.1
2017-Nov-10 11:00N 60°58' E 004°59'3 5.7
2017-Nov-10 10:31N 61°01' E 005°00'0 0.1
2017-Nov-10 10:00N 61°01' E 005°00'3 5.9
2017-Nov-10 09:30N 60°58' E 004°57'4 8.5
2017-Nov-10 09:00N 60°54' E 004°58'3 7.0
2017-Nov-10 08:30N 60°51' E 004°53'2 4.9
2017-Nov-10 08:00N 60°54' E 004°50'0 0.0
2017-Nov-10 07:30N 60°54' E 004°50'0 0.1
2017-Nov-10 07:00N 60°54' E 004°50'0 0.0
2017-Nov-10 06:30N 60°54' E 004°50'0 0.0
2017-Nov-10 05:59N 60°54' E 004°50'0 0.4
2017-Nov-10 05:30N 60°53' E 004°50'4 7.1
2017-Nov-10 04:59N 60°50' E 004°46'4 9.1
2017-Nov-10 04:30N 60°46' E 004°47'510.3
2017-Nov-10 04:00N 60°41' E 004°51'510.7
2017-Nov-10 03:30N 60°36' E 004°54'510.5
2017-Nov-10 03:00N 60°31' E 004°58'510.7
2017-Nov-10 02:30N 60°26' E 005°02'510.2
2017-Nov-10 02:00N 60°23' E 005°10'510.6
2017-Nov-10 01:29N 60°17' E 005°09'510.6
2017-Nov-10 01:00N 60°12' E 005°11'510.6
2017-Nov-10 00:30N 60°07' E 005°11'  
Track history (hours):
 
Tides and Currents Weather Stations Pressure Air Temp Water Temp Dewpoint Dewpoint Depression Visibility Wind Speed Wind Dir Waves Ship Positions

Hordafor III

Last reported at 2017-Nov-20 00:30 UTC. Time now 2017-Nov-20 19:03 UTC.
Position N 60°00' E 005°07'.

Length 50 m; draft 6 m.

Type: Cargo ship. MMSI: 258044000.

Date/timePositionNaut miles runAvg speedWind from/ knotsBaromVisibWave heightAir tempDewpointWater temp
2017-Nov-20 00:30N 60°00' E 005°07'0 0.0
2017-Nov-20 00:00N 60°00' E 005°07'1 1.1
2017-Nov-19 23:30N 59°60' E 005°06'611.3
2017-Nov-19 23:00N 59°55' E 005°11'611.5
2017-Nov-19 22:29N 59°50' E 005°17'611.5
2017-Nov-19 22:00N 59°45' E 005°22'5 9.4
2017-Nov-19 21:30N 59°40' E 005°21'510.5
2017-Nov-19 21:00N 59°36' E 005°17'510.2
2017-Nov-19 20:30N 59°31' E 005°13'611.2
2017-Nov-19 20:00N 59°25' E 005°14'5 9.6
2017-Nov-19 19:30N 59°21' E 005°19'611.0
2017-Nov-19 19:00N 59°15' E 005°20'4 9.0
2017-Nov-19 18:30N 59°13' E 005°28'5 9.6
2017-Nov-19 18:00N 59°14' E 005°37'611.7
2017-Nov-19 17:30N 59°17' E 005°46'510.4
2017-Nov-19 17:00N 59°18' E 005°56'2 3.2
2017-Nov-19 16:30N 59°18' E 005°59'0 0.0
2017-Nov-19 16:00N 59°18' E 005°59'0 0.0
2017-Nov-19 15:30N 59°18' E 005°59'0 0.0
2017-Nov-19 15:00N 59°18' E 005°59'0 0.0
2017-Nov-19 14:30N 59°18' E 005°59'0 0.0
2017-Nov-19 13:59N 59°18' E 005°59'1 1.5
2017-Nov-19 13:30N 59°18' E 005°58'0 0.3
2017-Nov-19 13:00N 59°18' E 005°58'1 1.5
2017-Nov-19 12:30N 59°18' E 005°59'0 0.0
2017-Nov-19 12:00N 59°18' E 005°59'0 0.0
2017-Nov-19 11:30N 59°18' E 005°59'0 0.0
2017-Nov-19 11:00N 59°18' E 005°59'2 3.6
2017-Nov-19 10:30N 59°18' E 005°56'510.2
2017-Nov-19 10:00N 59°17' E 005°46'510.6
2017-Nov-19 09:30N 59°13' E 005°40'510.0
2017-Nov-19 09:00N 59°09' E 005°34'5 9.9
2017-Nov-19 08:30N 59°04' E 005°33'510.0
2017-Nov-19 08:00N 58°59' E 005°33'5 9.9
2017-Nov-19 07:30N 58°54' E 005°32'5 9.6
2017-Nov-19 07:00N 58°50' E 005°28'5 9.3
2017-Nov-19 06:30N 58°45' E 005°26'4 8.0
2017-Nov-19 06:00N 58°41' E 005°28'4 7.6
2017-Nov-19 05:30N 58°38' E 005°30'3 6.6
2017-Nov-19 05:00N 58°34' E 005°32'3 6.2
2017-Nov-19 04:30N 58°31' E 005°33'3 6.2
2017-Nov-19 04:00N 58°28' E 005°34'3 6.0
2017-Nov-19 03:30N 58°26' E 005°36'3 5.7
2017-Nov-19 03:00N 58°23' E 005°38'3 5.6
2017-Nov-19 02:30N 58°20' E 005°39'3 5.4
2017-Nov-19 01:59N 58°18' E 005°42'3 5.6
2017-Nov-19 01:30N 58°15' E 005°44'3 6.3
2017-Nov-19 01:00N 58°13' E 005°47'4 8.0
2017-Nov-19 00:30N 58°09' E 005°51'4 8.0
2017-Nov-19 00:00N 58°06' E 005°56'4 8.2
2017-Nov-18 23:30N 58°03' E 005°60'173 7.8
2017-Nov-18 01:20N 55°25' E 008°10'3 8.6
2017-Nov-18 00:58N 55°26' E 008°15'4 9.4
2017-Nov-18 00:30N 55°29' E 008°21'2 4.2
2017-Nov-18 00:00N 55°29' E 008°25'0 0.0
2017-Nov-17 23:30N 55°29' E 008°25'0 0.0
2017-Nov-17 23:00N 55°29' E 008°25'0 0.0
2017-Nov-17 22:30N 55°29' E 008°25'0 0.0
2017-Nov-17 22:00N 55°29' E 008°25'0 0.0
2017-Nov-17 21:30N 55°29' E 008°25'0 0.0
2017-Nov-17 21:00N 55°29' E 008°25'0 0.0
2017-Nov-17 20:29N 55°29' E 008°25'0 0.0
2017-Nov-17 20:00N 55°29' E 008°25'0 0.0
2017-Nov-17 19:30N 55°29' E 008°25'0 0.0
2017-Nov-17 19:00N 55°29' E 008°25'0 0.0
2017-Nov-17 18:30N 55°29' E 008°25'0 0.0
2017-Nov-17 18:00N 55°29' E 008°25'0 0.0
2017-Nov-17 17:30N 55°29' E 008°25'0 0.0
2017-Nov-17 17:00N 55°29' E 008°25'0 0.0
2017-Nov-17 16:30N 55°29' E 008°25'0 0.0
2017-Nov-17 16:00N 55°29' E 008°25'0 0.0
2017-Nov-17 15:30N 55°29' E 008°25'0 0.0
2017-Nov-17 15:00N 55°29' E 008°25'0 0.0
2017-Nov-17 14:30N 55°29' E 008°25'0 0.0
2017-Nov-17 14:00N 55°29' E 008°25'0 0.0
2017-Nov-17 13:30N 55°29' E 008°25'0 0.0
2017-Nov-17 13:00N 55°29' E 008°25'0 0.0
2017-Nov-17 12:30N 55°29' E 008°25'0 0.0
2017-Nov-17 12:00N 55°29' E 008°25'0 0.0
2017-Nov-17 11:30N 55°29' E 008°25'0 0.1
2017-Nov-17 10:59N 55°29' E 008°25'0 0.0
2017-Nov-17 10:30N 55°29' E 008°25'3 6.2
2017-Nov-17 10:00N 55°28' E 008°20'611.2
2017-Nov-17 09:30N 55°25' E 008°11'610.9
2017-Nov-17 08:58N 55°25' E 008°01'611.1
2017-Nov-17 08:27N 55°25' E 007°51'511.0
2017-Nov-17 07:58N 55°27' E 007°42'17010.3
2017-Nov-16 15:28N 58°05' E 005°52'510.4
2017-Nov-16 15:00N 58°10' E 005°49'510.4
2017-Nov-16 14:30N 58°15' E 005°46'5 9.9
2017-Nov-16 14:00N 58°19' E 005°42'5 9.3
2017-Nov-16 13:30N 58°24' E 005°39'4 8.9
2017-Nov-16 13:00N 58°28' E 005°36'4 8.2
2017-Nov-16 12:30N 58°31' E 005°33'4 8.0
2017-Nov-16 12:00N 58°35' E 005°31'4 8.0
2017-Nov-16 11:30N 58°39' E 005°28'4 8.0
2017-Nov-16 11:00N 58°43' E 005°26'4 8.2
2017-Nov-16 10:30N 58°47' E 005°24'4 7.6
2017-Nov-16 10:00N 58°50' E 005°27'4 8.3
2017-Nov-16 09:30N 58°54' E 005°32'5 9.4
2017-Nov-16 09:00N 58°58' E 005°33'5 9.3
2017-Nov-16 08:30N 59°03' E 005°32'4 8.8
2017-Nov-16 08:00N 59°07' E 005°28'5 9.4
2017-Nov-16 07:30N 59°10' E 005°20'5 9.2
2017-Nov-16 07:00N 59°15' E 005°20'5 9.8
2017-Nov-16 06:30N 59°19' E 005°20'5 9.0
2017-Nov-16 06:00N 59°24' E 005°17'4 8.3
2017-Nov-16 05:30N 59°27' E 005°13'5 9.4
2017-Nov-16 04:59N 59°32' E 005°13'510.4
2017-Nov-16 04:30N 59°37' E 005°17'510.7
2017-Nov-16 04:00N 59°41' E 005°23'5 9.0
2017-Nov-16 03:29N 59°46' E 005°21'5 9.8
2017-Nov-16 03:00N 59°50' E 005°17'5 9.6
2017-Nov-16 02:30N 59°54' E 005°12'5 9.5
2017-Nov-16 02:00N 59°58' E 005°07'2 4.0
2017-Nov-16 01:30N 60°00' E 005°07'0 0.0
2017-Nov-16 01:00N 60°00' E 005°07'0 0.0
2017-Nov-16 00:30N 60°00' E 005°07'0 0.0
2017-Nov-16 00:00N 60°00' E 005°07'0 0.0
2017-Nov-15 23:30N 60°00' E 005°07'0 0.0
2017-Nov-15 23:00N 60°00' E 005°07'0 0.0
2017-Nov-15 22:30N 60°00' E 005°07'0 0.0
2017-Nov-15 22:00N 60°00' E 005°07'0 0.0
2017-Nov-15 21:30N 60°00' E 005°07'0 0.0
2017-Nov-15 20:59N 60°00' E 005°07'0 0.0
2017-Nov-15 20:30N 60°00' E 005°07'0 0.0
2017-Nov-15 20:00N 60°00' E 005°07'0 0.0
2017-Nov-15 19:29N 60°00' E 005°07'0 0.0
2017-Nov-15 19:00N 60°00' E 005°07'0 0.0
2017-Nov-15 18:30N 60°00' E 005°07'0 0.0
2017-Nov-15 18:00N 60°00' E 005°07'0 0.0
2017-Nov-15 17:30N 60°00' E 005°07'0 0.1
2017-Nov-15 17:00N 60°00' E 005°07'0 0.0
2017-Nov-15 16:30N 60°00' E 005°07'4 7.2
2017-Nov-15 16:00N 60°03' E 005°10'510.9
2017-Nov-15 15:30N 60°09' E 005°11'511.0
2017-Nov-15 15:00N 60°14' E 005°10'510.7
2017-Nov-15 14:30N 60°19' E 005°09'5 9.8
2017-Nov-15 14:00N 60°24' E 005°13'3 5.9
2017-Nov-15 13:30N 60°24' E 005°19'0 0.0
2017-Nov-15 13:00N 60°24' E 005°19'0 0.0
2017-Nov-15 12:30N 60°24' E 005°19'0 0.0
2017-Nov-15 12:00N 60°24' E 005°19'0 0.0
2017-Nov-15 11:30N 60°24' E 005°19'0 0.0
2017-Nov-15 11:00N 60°24' E 005°19'0 0.0
2017-Nov-15 10:30N 60°24' E 005°19'0 0.0
2017-Nov-15 10:00N 60°24' E 005°19'0 0.0
2017-Nov-15 09:30N 60°24' E 005°19'0 0.0
2017-Nov-15 09:00N 60°24' E 005°19'0 0.0
2017-Nov-15 08:30N 60°24' E 005°19'0 0.0
2017-Nov-15 07:59N 60°24' E 005°19'0 0.0
2017-Nov-15 07:30N 60°24' E 005°19'0 0.0
2017-Nov-15 07:00N 60°24' E 005°19'0 0.0
2017-Nov-15 06:30N 60°24' E 005°19'1 1.6
2017-Nov-15 05:59N 60°24' E 005°18'511.1
2017-Nov-15 05:30N 60°30' E 005°15'4 8.1
2017-Nov-15 05:00N 60°31' E 005°23'1 2.9
2017-Nov-15 04:30N 60°30' E 005°26'0 0.0
2017-Nov-15 04:00N 60°30' E 005°26'0 0.0
2017-Nov-15 03:30N 60°30' E 005°26'0 0.0
2017-Nov-15 03:00N 60°30' E 005°26'0 0.0
2017-Nov-15 02:30N 60°30' E 005°26'0 0.0
2017-Nov-15 02:00N 60°30' E 005°26'4 8.9
2017-Nov-15 01:30N 60°32' E 005°17'610.7
2017-Nov-15 01:00N 60°26' E 005°16'5 9.6
2017-Nov-15 00:30N 60°22' E 005°10'5 9.7
2017-Nov-15 00:00N 60°18' E 005°12'4 8.0
2017-Nov-14 23:30N 60°14' E 005°10'611.2
2017-Nov-14 23:00N 60°09' E 005°17'510.9
2017-Nov-14 22:30N 60°07' E 005°27'611.2
2017-Nov-14 22:00N 60°07' E 005°38'3 5.2
2017-Nov-14 21:28N 60°07' E 005°44'2 3.8
2017-Nov-14 21:00N 60°07' E 005°40'611.1
2017-Nov-14 20:30N 60°07' E 005°29'611.1
2017-Nov-14 19:59N 60°07' E 005°18'4 7.3
2017-Nov-14 19:30N 60°06' E 005°11'1 2.6
2017-Nov-14 19:00N 60°06' E 005°13'0 0.0
2017-Nov-14 18:30N 60°06' E 005°13'0 0.0
2017-Nov-14 18:00N 60°06' E 005°13'1 1.8
2017-Nov-14 17:30N 60°05' E 005°12'510.7
2017-Nov-14 16:59N 60°00' E 005°07'0 0.1
2017-Nov-14 16:29N 60°00' E 005°07'0 0.0
2017-Nov-14 16:00N 60°00' E 005°07'0 0.0
2017-Nov-14 15:30N 60°00' E 005°07'0 0.0
2017-Nov-14 15:00N 60°00' E 005°07'4 7.2
2017-Nov-14 14:30N 59°57' E 005°06'3 5.8
2017-Nov-14 13:59N 59°54' E 005°06'0 0.0
2017-Nov-14 13:30N 59°54' E 005°06'0 0.0
2017-Nov-14 13:00N 59°54' E 005°06'0 0.0
2017-Nov-14 12:30N 59°54' E 005°06'0 0.0
2017-Nov-14 12:00N 59°54' E 005°06'0 0.0
2017-Nov-14 11:30N 59°54' E 005°06'0 0.6
2017-Nov-14 11:00N 59°53' E 005°06'5 9.7
2017-Nov-14 10:30N 59°58' E 005°06'611.3
2017-Nov-14 10:00N 60°04' E 005°10'611.4
2017-Nov-14 09:30N 60°09' E 005°11'611.3
2017-Nov-14 08:59N 60°15' E 005°09'510.7
2017-Nov-14 08:30N 60°20' E 005°10'510.2
2017-Nov-14 08:00N 60°25' E 005°05'510.2
2017-Nov-14 07:30N 60°29' E 004°59'510.1
2017-Nov-14 07:00N 60°33' E 004°55'3 5.3
2017-Nov-14 06:30N 60°36' E 004°51'0 1.0
2017-Nov-14 06:00N 60°36' E 004°52'5 9.2
2017-Nov-14 05:30N 60°40' E 004°50'5 9.6
2017-Nov-14 05:00N 60°45' E 004°47'5 9.3
2017-Nov-14 04:30N 60°49' E 004°45'5 9.9
2017-Nov-14 04:00N 60°54' E 004°46'5 9.7
2017-Nov-14 03:30N 60°59' E 004°47'510.8
2017-Nov-14 03:00N 61°02' E 004°55'510.6
2017-Nov-14 02:30N 61°07' E 005°02'5 9.9
2017-Nov-14 02:00N 61°12' E 005°01'4 7.1
2017-Nov-14 01:30N 61°12' E 005°08'1 1.7
2017-Nov-14 01:00N 61°12' E 005°10'0 0.9
2017-Nov-14 00:30N 61°12' E 005°11'3 5.0
2017-Nov-14 00:00N 61°12' E 005°16'0 0.0
2017-Nov-13 23:30N 61°12' E 005°16'5 9.4
2017-Nov-13 23:00N 61°13' E 005°06'5 9.8
2017-Nov-13 22:30N 61°14' E 004°56'4 8.6
2017-Nov-13 22:00N 61°18' E 004°59'78 3.9
2017-Nov-13 02:00N 62°28' E 006°09'0 0.0
2017-Nov-13 01:30N 62°28' E 006°09'0 0.0
2017-Nov-13 01:00N 62°28' E 006°09'0 0.0
2017-Nov-13 00:30N 62°28' E 006°09'0 0.0
2017-Nov-13 00:01N 62°28' E 006°09'0 0.0
2017-Nov-12 23:30N 62°28' E 006°09'0 0.0
2017-Nov-12 23:00N 62°28' E 006°09'0 0.0
2017-Nov-12 22:30N 62°28' E 006°09'0 0.0
2017-Nov-12 22:00N 62°28' E 006°09'0 0.0
2017-Nov-12 21:30N 62°28' E 006°09'0 0.0
2017-Nov-12 21:00N 62°28' E 006°09'0 0.0
2017-Nov-12 20:31N 62°28' E 006°09'0 0.0
2017-Nov-12 20:00N 62°28' E 006°09'0 0.0
2017-Nov-12 19:31N 62°28' E 006°09'0 0.0
2017-Nov-12 19:01N 62°28' E 006°09'0 0.0
2017-Nov-12 18:31N 62°28' E 006°09'0 0.0
2017-Nov-12 18:01N 62°28' E 006°09'0 0.0
2017-Nov-12 17:30N 62°28' E 006°09'0 0.0
2017-Nov-12 17:01N 62°28' E 006°09'1 1.2
2017-Nov-12 16:31N 62°28' E 006°10'2 4.2
2017-Nov-12 16:00N 62°29' E 006°06'510.8
2017-Nov-12 15:30N 62°34' E 006°11'5 9.1
2017-Nov-12 15:00N 62°37' E 006°18'510.6
2017-Nov-12 14:30N 62°38' E 006°30'611.0
2017-Nov-12 13:59N 62°39' E 006°41'611.1
2017-Nov-12 13:29N 62°41' E 006°53'5 9.9
2017-Nov-12 13:00N 62°46' E 006°57'611.5
2017-Nov-12 12:30N 62°51' E 006°58'5 9.2
2017-Nov-12 12:00N 62°55' E 006°51'2 4.9
2017-Nov-12 11:30N 62°54' E 006°46'4 8.6
2017-Nov-12 11:00N 62°51' E 006°40'510.1
2017-Nov-12 10:30N 62°46' E 006°34'510.6
2017-Nov-12 10:00N 62°42' E 006°28'510.6
2017-Nov-12 09:30N 62°38' E 006°21'5 9.8
2017-Nov-12 09:00N 62°34' E 006°13'5 9.9
2017-Nov-12 08:30N 62°30' E 006°09'3 5.5
2017-Nov-12 08:00N 62°27' E 006°08'1 2.4
2017-Nov-12 07:30N 62°28' E 006°09'0 0.0
2017-Nov-12 07:00N 62°28' E 006°09'0 0.0
2017-Nov-12 06:30N 62°28' E 006°09'0 0.0
2017-Nov-12 06:00N 62°28' E 006°09'0 0.0
2017-Nov-12 05:30N 62°28' E 006°09'0 0.0
2017-Nov-12 05:01N 62°28' E 006°09'0 0.0
2017-Nov-12 04:31N 62°28' E 006°09'0 0.0
2017-Nov-12 04:01N 62°28' E 006°09'0 0.0
2017-Nov-12 03:30N 62°28' E 006°09'0 0.0
2017-Nov-12 03:00N 62°28' E 006°09'0 0.0
2017-Nov-12 02:30N 62°28' E 006°09'0 0.0
2017-Nov-12 02:00N 62°28' E 006°09'0 0.0
2017-Nov-12 01:30N 62°28' E 006°09'0 0.0
2017-Nov-12 01:01N 62°28' E 006°09'0 0.0
2017-Nov-12 00:31N 62°28' E 006°09'0 0.0
2017-Nov-12 00:00N 62°28' E 006°09'0 0.1
2017-Nov-11 23:30N 62°28' E 006°09'2 4.5
2017-Nov-11 23:00N 62°28' E 006°05'4 8.4
2017-Nov-11 22:30N 62°24' E 006°05'5 9.4
2017-Nov-11 22:00N 62°19' E 006°04'611.4
2017-Nov-11 21:30N 62°15' E 005°56'510.4
2017-Nov-11 21:00N 62°10' E 005°58'1 1.9
2017-Nov-11 20:29N 62°09' E 005°57'3 6.7
2017-Nov-11 20:00N 62°12' E 005°55'510.1
2017-Nov-11 19:29N 62°12' E 005°44'510.1
2017-Nov-11 19:00N 62°11' E 005°33'5 9.3
2017-Nov-11 18:30N 62°11' E 005°23'5 9.2
2017-Nov-11 18:00N 62°13' E 005°15'5 9.0
2017-Nov-11 17:30N 62°12' E 005°05'5 9.2
2017-Nov-11 17:00N 62°07' E 005°05'5 9.5
2017-Nov-11 16:30N 62°03' E 005°08'510.2
2017-Nov-11 16:00N 61°58' E 005°09'4 8.7
2017-Nov-11 15:30N 61°53' E 005°10'4 8.5
2017-Nov-11 15:00N 61°50' E 005°16'5 9.9
2017-Nov-11 14:30N 61°48' E 005°07'5 9.9
2017-Nov-11 14:00N 61°44' E 004°59'5 9.7
2017-Nov-11 13:30N 61°40' E 004°58'5 9.7
2017-Nov-11 13:00N 61°35' E 004°57'5 9.3
2017-Nov-11 12:30N 61°30' E 004°60'5 9.9
2017-Nov-11 12:00N 61°25' E 004°58'510.0
2017-Nov-11 11:30N 61°21' E 005°03'4 8.0
2017-Nov-11 11:00N 61°17' E 004°58'4 8.0
2017-Nov-11 10:30N 61°13' E 004°57'5 9.2
2017-Nov-11 10:00N 61°09' E 005°01'510.1
2017-Nov-11 09:30N 61°04' E 005°01'510.2
2017-Nov-11 09:00N 60°59' E 005°02'4 7.0
2017-Nov-11 08:30N 60°57' E 004°56'5 9.8
2017-Nov-11 08:00N 60°53' E 004°58'4 8.6
2017-Nov-11 07:30N 60°51' E 004°49'3 7.0
2017-Nov-11 07:00N 60°48' E 004°45'5 9.1
2017-Nov-11 06:30N 60°44' E 004°49'5 9.5
2017-Nov-11 05:59N 60°39' E 004°52'5 9.6
2017-Nov-11 05:30N 60°35' E 004°55'5 9.7
2017-Nov-11 05:00N 60°30' E 004°59'510.2
2017-Nov-11 04:30N 60°26' E 005°03'5 9.7
2017-Nov-11 04:00N 60°22' E 005°10'510.4
2017-Nov-11 03:30N 60°17' E 005°09'510.9
2017-Nov-11 03:00N 60°12' E 005°11'510.5
2017-Nov-11 02:30N 60°06' E 005°11'510.1
2017-Nov-11 02:00N 60°01' E 005°09'1 2.9
2017-Nov-11 01:29N 60°00' E 005°07'0 0.0
2017-Nov-11 01:00N 60°00' E 005°07'0 0.0
2017-Nov-11 00:30N 60°00' E 005°07'0 0.0
2017-Nov-10 23:59N 60°00' E 005°07'0 0.0
2017-Nov-10 23:30N 60°00' E 005°07'0 0.0
2017-Nov-10 23:00N 60°00' E 005°07'0 0.0
2017-Nov-10 22:30N 60°00' E 005°07'0 0.0
2017-Nov-10 22:00N 60°00' E 005°07'2 4.5
2017-Nov-10 21:30N 60°02' E 005°07'1 2.9
2017-Nov-10 21:00N 60°03' E 005°09'510.7
2017-Nov-10 20:30N 60°09' E 005°11'1 2.7
2017-Nov-10 19:59N 60°09' E 005°14'0 0.0
2017-Nov-10 19:30N 60°09' E 005°14'0 0.9
2017-Nov-10 19:00N 60°10' E 005°13'0 0.7
2017-Nov-10 18:30N 60°10' E 005°13'0 0.8
2017-Nov-10 17:59N 60°10' E 005°13'3 6.6
2017-Nov-10 17:30N 60°13' E 005°13'0 0.0
2017-Nov-10 17:00N 60°13' E 005°13'2 4.1
2017-Nov-10 16:29N 60°15' E 005°09'510.9
2017-Nov-10 16:00N 60°20' E 005°09'5 9.3
2017-Nov-10 15:30N 60°24' E 005°06'510.3
2017-Nov-10 15:00N 60°28' E 004°60'510.8
2017-Nov-10 14:30N 60°33' E 004°55'3 5.8
2017-Nov-10 14:00N 60°36' E 004°51'3 5.8
2017-Nov-10 13:29N 60°38' E 004°51'510.8
2017-Nov-10 13:00N 60°43' E 004°48'510.7
2017-Nov-10 12:30N 60°49' E 004°44'4 9.0
2017-Nov-10 12:00N 60°51' E 004°52'4 8.9
2017-Nov-10 11:30N 60°54' E 004°58'4 8.1
2017-Nov-10 11:00N 60°58' E 004°59'3 5.7
2017-Nov-10 10:31N 61°01' E 005°00'0 0.1
2017-Nov-10 10:00N 61°01' E 005°00'3 5.9
2017-Nov-10 09:30N 60°58' E 004°57'4 8.5
2017-Nov-10 09:00N 60°54' E 004°58'3 7.0
2017-Nov-10 08:30N 60°51' E 004°53'2 4.9
2017-Nov-10 08:00N 60°54' E 004°50'0 0.0
2017-Nov-10 07:30N 60°54' E 004°50'0 0.1
2017-Nov-10 07:00N 60°54' E 004°50'0 0.0
2017-Nov-10 06:30N 60°54' E 004°50'0 0.0
2017-Nov-10 05:59N 60°54' E 004°50'0 0.4
2017-Nov-10 05:30N 60°53' E 004°50'4 7.1
2017-Nov-10 04:59N 60°50' E 004°46'4 9.1
2017-Nov-10 04:30N 60°46' E 004°47'510.3
2017-Nov-10 04:00N 60°41' E 004°51'510.7
2017-Nov-10 03:30N 60°36' E 004°54'510.5
2017-Nov-10 03:00N 60°31' E 004°58'510.7
2017-Nov-10 02:30N 60°26' E 005°02'510.2
2017-Nov-10 02:00N 60°23' E 005°10'510.6
2017-Nov-10 01:29N 60°17' E 005°09'510.6
2017-Nov-10 01:00N 60°12' E 005°11'510.6
2017-Nov-10 00:30N 60°07' E 005°11'  

Dump ship's entire track history